createdAt,value
2023-04-29T00:00:00.836Z,0.00
2023-04-29T00:02:01.179Z,0.00
2023-04-29T00:04:01.719Z,0.00
2023-04-29T00:06:02.392Z,0.00
2023-04-29T00:08:02.970Z,0.00
2023-04-29T00:10:03.280Z,0.00
2023-04-29T00:12:03.578Z,0.00
2023-04-29T00:14:03.865Z,0.00
2023-04-29T00:16:04.167Z,0.00
2023-04-29T00:18:04.518Z,0.00
2023-04-29T00:20:04.827Z,0.00
2023-04-29T00:22:05.148Z,0.00
2023-04-29T00:24:05.452Z,0.00
2023-04-29T00:26:05.762Z,0.00
2023-04-29T00:28:06.081Z,0.00
2023-04-29T00:30:06.350Z,0.00
2023-04-29T00:32:06.677Z,0.00
2023-04-29T00:34:06.954Z,0.00
2023-04-29T00:36:07.301Z,0.00
2023-04-29T00:38:07.562Z,0.00
2023-04-29T00:40:07.854Z,0.00
2023-04-29T00:42:08.177Z,0.00
2023-04-29T00:44:08.455Z,0.00
2023-04-29T00:46:08.813Z,0.00
2023-04-29T00:48:09.219Z,0.00
2023-04-29T00:50:09.479Z,0.00
2023-04-29T00:52:09.831Z,0.00
2023-04-29T00:54:10.123Z,0.00
2023-04-29T00:56:10.461Z,0.00
2023-04-29T00:58:10.726Z,0.00
2023-04-29T01:00:10.989Z,0.00
2023-04-29T01:02:11.313Z,0.00
2023-04-29T01:04:11.766Z,0.00
2023-04-29T01:06:12.099Z,0.00
2023-04-29T01:08:12.391Z,0.00
2023-04-29T01:10:12.709Z,0.00
2023-04-29T01:12:12.978Z,0.00
2023-04-29T01:14:13.317Z,0.00
2023-04-29T01:16:13.711Z,0.00
2023-04-29T01:18:13.990Z,0.00
2023-04-29T01:20:14.261Z,0.00
2023-04-29T01:22:14.575Z,0.00
2023-04-29T01:24:14.851Z,0.00
2023-04-29T01:26:15.176Z,0.00
2023-04-29T01:28:15.456Z,0.00
2023-04-29T01:30:15.807Z,0.00
2023-04-29T01:32:16.096Z,0.00
2023-04-29T01:34:16.428Z,0.00
2023-04-29T01:36:16.747Z,0.00
2023-04-29T01:38:17.044Z,0.00
2023-04-29T01:40:17.346Z,0.00
2023-04-29T01:42:17.602Z,0.00
2023-04-29T01:44:17.932Z,0.00
2023-04-29T01:46:18.237Z,0.00
2023-04-29T01:48:18.510Z,0.00
2023-04-29T01:50:18.780Z,0.00
2023-04-29T01:52:19.081Z,0.00
2023-04-29T01:54:19.413Z,0.00
2023-04-29T01:56:19.700Z,0.00
2023-04-29T01:58:20.036Z,0.00
2023-04-29T02:00:20.320Z,0.00
2023-04-29T02:02:20.633Z,0.00
2023-04-29T02:04:21.065Z,0.00
2023-04-29T02:06:21.335Z,0.00
2023-04-29T02:08:21.647Z,0.00
2023-04-29T02:10:21.929Z,0.00
2023-04-29T02:12:22.209Z,0.00
2023-04-29T02:14:22.514Z,0.00
2023-04-29T02:16:22.958Z,0.00
2023-04-29T02:18:23.261Z,0.00
2023-04-29T02:20:23.572Z,0.00
2023-04-29T02:22:23.846Z,0.00
2023-04-29T02:24:24.166Z,0.00
2023-04-29T02:26:24.423Z,0.00
2023-04-29T02:28:24.743Z,0.00
2023-04-29T02:30:25.020Z,0.00
2023-04-29T02:32:25.285Z,0.00
2023-04-29T02:34:25.615Z,0.00
2023-04-29T02:36:25.907Z,0.00
2023-04-29T02:38:26.185Z,0.00
2023-04-29T02:40:26.521Z,0.00
2023-04-29T02:42:26.895Z,0.00
2023-04-29T02:44:27.206Z,0.00
2023-04-29T02:46:27.565Z,0.00
2023-04-29T02:48:27.810Z,0.00
2023-04-29T02:50:28.099Z,0.00
2023-04-29T02:52:28.391Z,0.00
2023-04-29T02:54:28.714Z,0.00
2023-04-29T02:56:28.974Z,0.00
2023-04-29T02:58:29.295Z,0.00
2023-04-29T03:00:29.579Z,0.00
2023-04-29T03:02:30.002Z,0.00
2023-04-29T03:04:30.421Z,0.00
2023-04-29T03:06:30.731Z,0.00
2023-04-29T03:08:31.009Z,0.00
2023-04-29T03:10:31.328Z,0.00
2023-04-29T03:12:31.599Z,0.00
2023-04-29T03:14:31.927Z,0.00
2023-04-29T03:16:32.271Z,0.00
2023-04-29T03:18:32.576Z,0.00
2023-04-29T03:20:32.919Z,0.00
2023-04-29T03:22:33.286Z,0.00
2023-04-29T03:24:33.535Z,0.00
2023-04-29T03:26:33.873Z,0.00
2023-04-29T03:28:34.185Z,0.00
2023-04-29T03:30:34.479Z,0.00
2023-04-29T03:32:34.872Z,0.00
2023-04-29T03:34:35.134Z,0.00
2023-04-29T03:36:35.420Z,0.00
2023-04-29T03:38:35.751Z,0.00
2023-04-29T03:40:36.049Z,0.00
2023-04-29T03:42:36.337Z,0.00
2023-04-29T03:44:36.641Z,0.00
2023-04-29T03:46:37.018Z,0.00
2023-04-29T03:48:37.348Z,0.00
2023-04-29T03:50:37.659Z,0.00
2023-04-29T03:52:37.976Z,0.00
2023-04-29T03:54:38.408Z,0.00
2023-04-29T03:56:38.665Z,0.00
2023-04-29T03:58:39.001Z,0.00
2023-04-29T04:00:39.340Z,0.00
2023-04-29T04:02:39.769Z,0.00
2023-04-29T04:04:45.037Z,0.00
2023-04-29T04:06:45.619Z,0.00
2023-04-29T04:08:45.899Z,0.00
2023-04-29T04:10:46.182Z,0.00
2023-04-29T04:12:46.507Z,0.00
2023-04-29T04:14:46.814Z,0.00
2023-04-29T04:16:47.105Z,0.00
2023-04-29T04:18:47.379Z,0.00
2023-04-29T04:20:47.732Z,0.00
2023-04-29T04:22:48.015Z,0.00
2023-04-29T04:24:48.334Z,0.00
2023-04-29T04:26:48.623Z,0.00
2023-04-29T04:28:48.936Z,0.00
2023-04-29T04:30:49.241Z,5.62
2023-04-29T04:32:49.551Z,5.62
2023-04-29T04:34:49.872Z,11.25
2023-04-29T04:36:50.197Z,11.25
2023-04-29T04:38:50.480Z,11.25
2023-04-29T04:40:50.758Z,11.25
2023-04-29T04:42:51.620Z,16.88
2023-04-29T04:44:52.891Z,16.88
2023-04-29T04:46:53.206Z,16.88
2023-04-29T04:48:53.486Z,16.88
2023-04-29T04:50:53.828Z,16.88
2023-04-29T04:52:54.101Z,16.88
2023-04-29T04:54:54.406Z,22.50
2023-04-29T04:56:54.771Z,28.12
2023-04-29T04:58:55.102Z,28.12
2023-04-29T05:00:55.400Z,22.50
2023-04-29T05:02:55.819Z,28.12
2023-04-29T05:04:56.162Z,28.12
2023-04-29T05:06:56.462Z,28.12
2023-04-29T05:08:56.762Z,28.12
2023-04-29T05:10:57.036Z,28.12
2023-04-29T05:12:57.371Z,28.12
2023-04-29T05:14:57.679Z,33.75
2023-04-29T05:16:58.033Z,28.12
2023-04-29T05:18:58.357Z,33.75
2023-04-29T05:20:58.656Z,33.75
2023-04-29T05:22:58.953Z,33.75
2023-04-29T05:24:59.219Z,28.12
2023-04-29T05:26:59.540Z,28.12
2023-04-29T05:28:59.837Z,28.12
2023-04-29T05:31:00.186Z,33.75
2023-04-29T05:33:00.548Z,39.38
2023-04-29T05:35:00.814Z,50.62
2023-04-29T05:37:01.128Z,50.62
2023-04-29T05:39:01.460Z,50.62
2023-04-29T05:41:01.755Z,50.62
2023-04-29T05:43:02.105Z,45.00
2023-04-29T05:45:02.389Z,39.38
2023-04-29T05:47:02.738Z,45.00
2023-04-29T05:49:02.999Z,45.00
2023-04-29T05:51:03.316Z,45.00
2023-04-29T05:53:03.602Z,45.00
2023-04-29T05:55:03.957Z,56.25
2023-04-29T05:57:04.280Z,73.12
2023-04-29T05:59:04.609Z,90.00
2023-04-29T06:01:05.116Z,95.62
2023-04-29T06:03:05.651Z,67.50
2023-04-29T06:05:06.188Z,56.25
2023-04-29T06:07:06.755Z,61.88
2023-04-29T06:09:13.271Z,61.88
2023-04-29T06:11:12.593Z,56.25
2023-04-29T06:13:12.942Z,61.88
2023-04-29T06:15:13.280Z,56.25
2023-04-29T06:17:13.608Z,45.00
2023-04-29T06:19:13.960Z,45.00
2023-04-29T06:21:15.910Z,45.00
2023-04-29T06:23:16.311Z,50.62
2023-04-29T06:25:16.607Z,50.62
2023-04-29T06:27:16.937Z,45.00
2023-04-29T06:29:17.309Z,39.38
2023-04-29T06:31:17.637Z,33.75
2023-04-29T06:33:17.989Z,45.00
2023-04-29T06:35:18.303Z,56.25
2023-04-29T06:37:18.657Z,73.12
2023-04-29T06:39:19.005Z,78.75
2023-04-29T06:41:19.348Z,90.00
2023-04-29T06:43:19.642Z,95.62
2023-04-29T06:45:19.994Z,90.00
2023-04-29T06:47:20.347Z,84.38
2023-04-29T06:49:20.641Z,78.75
2023-04-29T06:51:20.971Z,84.38
2023-04-29T06:53:21.261Z,101.25
2023-04-29T06:55:21.595Z,129.38
2023-04-29T06:57:21.924Z,135.00
2023-04-29T06:59:22.254Z,129.38
2023-04-29T07:01:23.877Z,168.75
2023-04-29T07:03:24.501Z,174.38
2023-04-29T07:05:24.780Z,146.25
2023-04-29T07:07:25.132Z,118.12
2023-04-29T07:09:25.403Z,106.88
2023-04-29T07:11:25.721Z,106.88
2023-04-29T07:13:26.053Z,106.88
2023-04-29T07:15:26.372Z,106.88
2023-04-29T07:17:26.694Z,95.62
2023-04-29T07:19:27.124Z,84.38
2023-04-29T07:21:28.422Z,90.00
2023-04-29T07:23:28.786Z,78.75
2023-04-29T07:25:29.058Z,84.38
2023-04-29T07:27:29.352Z,84.38
2023-04-29T07:29:29.806Z,90.00
2023-04-29T07:31:30.228Z,112.50
2023-04-29T07:33:30.539Z,135.00
2023-04-29T07:35:30.832Z,157.50
2023-04-29T07:37:31.192Z,157.50
2023-04-29T07:39:31.487Z,146.25
2023-04-29T07:41:31.809Z,140.62
2023-04-29T07:43:32.129Z,140.62
2023-04-29T07:45:32.625Z,135.00
2023-04-29T07:47:32.991Z,118.12
2023-04-29T07:49:33.361Z,101.25
2023-04-29T07:51:33.713Z,106.88
2023-04-29T07:53:34.061Z,118.12
2023-04-29T07:55:34.423Z,118.12
2023-04-29T07:57:34.800Z,146.25
2023-04-29T07:59:35.192Z,191.25
2023-04-29T08:01:35.536Z,185.62
2023-04-29T08:03:37.612Z,174.38
2023-04-29T08:05:40.510Z,168.75
2023-04-29T08:07:40.976Z,180.00
2023-04-29T08:09:41.305Z,208.12
2023-04-29T08:11:43.043Z,202.50
2023-04-29T08:13:43.473Z,180.00
2023-04-29T08:15:44.071Z,151.88
2023-04-29T08:18:26.535Z,129.38
2023-04-29T08:20:28.554Z,118.12
2023-04-29T08:22:28.992Z,118.12
2023-04-29T08:24:29.358Z,129.38
2023-04-29T08:26:29.651Z,129.38
2023-04-29T08:28:29.968Z,112.50
2023-04-29T08:30:30.270Z,135.00
2023-04-29T08:32:30.564Z,168.75
2023-04-29T08:34:30.878Z,185.62
2023-04-29T08:36:31.217Z,208.12
2023-04-29T08:38:31.504Z,191.25
2023-04-29T08:40:31.792Z,180.00
2023-04-29T08:42:32.145Z,174.38
2023-04-29T08:44:32.449Z,174.38
2023-04-29T08:46:32.722Z,168.75
2023-04-29T08:48:33.126Z,163.12
2023-04-29T08:50:33.485Z,163.12
2023-04-29T08:52:33.784Z,151.88
2023-04-29T08:54:34.064Z,151.88
2023-04-29T08:56:34.380Z,157.50
2023-04-29T08:58:34.709Z,163.12
2023-04-29T09:00:35.046Z,185.62
2023-04-29T09:02:35.377Z,202.50
2023-04-29T09:04:35.782Z,196.88
2023-04-29T09:06:36.101Z,191.25
2023-04-29T09:08:36.397Z,168.75
2023-04-29T09:10:36.760Z,157.50
2023-04-29T09:12:37.042Z,168.75
2023-04-29T09:14:37.383Z,185.62
2023-04-29T09:16:37.743Z,163.12
2023-04-29T09:18:38.009Z,129.38
2023-04-29T09:20:38.363Z,135.00
2023-04-29T09:22:38.668Z,151.88
2023-04-29T09:24:39.046Z,146.25
2023-04-29T09:26:39.301Z,135.00
2023-04-29T09:28:39.688Z,151.88
2023-04-29T09:30:39.998Z,180.00
2023-04-29T09:32:40.397Z,191.25
2023-04-29T09:34:40.695Z,213.75
2023-04-29T09:36:41.006Z,196.88
2023-04-29T09:38:42.605Z,185.62
2023-04-29T09:40:58.252Z,202.50
2023-04-29T09:42:49.570Z,247.50
2023-04-29T09:44:49.830Z,309.38
2023-04-29T09:46:50.148Z,348.75
2023-04-29T09:48:50.548Z,360.00
2023-04-29T09:50:50.880Z,376.88
2023-04-29T09:52:51.133Z,410.62
2023-04-29T09:54:51.766Z,421.88
2023-04-29T09:56:52.153Z,455.62
2023-04-29T09:58:52.483Z,410.62
2023-04-29T10:00:52.805Z,354.38
2023-04-29T10:02:53.193Z,331.88
2023-04-29T10:04:54.008Z,331.88
2023-04-29T10:06:54.579Z,348.75
2023-04-29T10:08:54.859Z,354.38
2023-04-29T10:10:55.301Z,348.75
2023-04-29T10:12:55.628Z,371.25
2023-04-29T10:14:56.128Z,399.38
2023-04-29T10:16:56.442Z,421.88
2023-04-29T10:18:56.854Z,421.88
2023-04-29T10:20:57.203Z,410.62
2023-04-29T10:22:57.542Z,416.25
2023-04-29T10:24:57.814Z,410.62
2023-04-29T10:26:58.105Z,410.62
2023-04-29T10:28:58.460Z,410.62
2023-04-29T10:30:58.830Z,405.00
2023-04-29T10:33:01.665Z,405.00
2023-04-29T10:35:02.085Z,421.88
2023-04-29T10:37:02.453Z,388.12
2023-04-29T10:39:02.789Z,376.88
2023-04-29T10:41:03.118Z,376.88
2023-04-29T10:43:03.414Z,388.12
2023-04-29T10:45:03.749Z,393.75
2023-04-29T10:47:04.176Z,438.75
2023-04-29T10:49:04.469Z,478.12
2023-04-29T10:51:04.757Z,506.25
2023-04-29T10:53:05.131Z,495.00
2023-04-29T10:55:05.411Z,483.75
2023-04-29T10:57:05.700Z,472.50
2023-04-29T10:59:06.122Z,461.25
2023-04-29T11:01:06.365Z,478.12
2023-04-29T11:03:06.780Z,500.62
2023-04-29T11:05:07.213Z,534.38
2023-04-29T11:07:07.544Z,500.62
2023-04-29T11:09:07.856Z,500.62
2023-04-29T11:11:08.166Z,472.50
2023-04-29T11:13:08.463Z,455.62
2023-04-29T11:15:08.757Z,388.12
2023-04-29T11:17:09.069Z,286.88
2023-04-29T11:19:09.422Z,309.38
2023-04-29T11:21:09.682Z,303.75
2023-04-29T11:23:09.997Z,270.00
2023-04-29T11:25:10.312Z,303.75
2023-04-29T11:27:10.653Z,348.75
2023-04-29T11:29:10.949Z,354.38
2023-04-29T11:31:11.313Z,371.25
2023-04-29T11:33:11.684Z,421.88
2023-04-29T11:35:12.123Z,433.12
2023-04-29T11:37:12.410Z,416.25
2023-04-29T11:39:12.701Z,393.75
2023-04-29T11:41:13.040Z,399.38
2023-04-29T11:43:13.338Z,382.50
2023-04-29T11:45:13.600Z,354.38
2023-04-29T11:47:13.935Z,337.50
2023-04-29T11:49:14.180Z,343.12
2023-04-29T11:51:14.539Z,365.62
2023-04-29T11:53:14.858Z,376.88
2023-04-29T11:55:15.206Z,410.62
2023-04-29T11:57:15.506Z,410.62
2023-04-29T11:59:15.813Z,455.62
2023-04-29T12:01:16.126Z,433.12
2023-04-29T12:03:16.753Z,450.00
2023-04-29T12:05:17.682Z,495.00
2023-04-29T12:07:18.264Z,461.25
2023-04-29T12:09:18.586Z,438.75
2023-04-29T12:11:18.889Z,455.62
2023-04-29T12:13:19.388Z,511.88
2023-04-29T12:15:19.650Z,489.38
2023-04-29T12:17:19.957Z,450.00
2023-04-29T12:19:20.310Z,478.12
2023-04-29T12:21:20.626Z,483.75
2023-04-29T12:23:20.922Z,472.50
2023-04-29T12:25:21.202Z,495.00
2023-04-29T12:27:21.532Z,500.62
2023-04-29T12:29:21.832Z,472.50
2023-04-29T12:31:22.136Z,433.12
2023-04-29T12:33:22.446Z,427.50
2023-04-29T12:35:22.817Z,399.38
2023-04-29T12:37:23.111Z,410.62
2023-04-29T12:39:23.395Z,416.25
2023-04-29T12:41:23.719Z,438.75
2023-04-29T12:43:24.010Z,450.00
2023-04-29T12:45:24.347Z,438.75
2023-04-29T12:47:24.704Z,450.00
2023-04-29T12:49:24.964Z,450.00
2023-04-29T12:51:25.301Z,466.88
2023-04-29T12:53:25.624Z,455.62
2023-04-29T12:55:25.944Z,444.38
2023-04-29T12:57:26.199Z,444.38
2023-04-29T12:59:26.552Z,427.50
2023-04-29T13:01:26.851Z,427.50
2023-04-29T13:03:27.324Z,444.38
2023-04-29T13:05:27.739Z,421.88
2023-04-29T13:07:28.041Z,433.12
2023-04-29T13:09:28.393Z,416.25
2023-04-29T13:11:32.527Z,421.88
2023-04-29T13:13:33.979Z,410.62
2023-04-29T13:15:34.305Z,388.12
2023-04-29T13:17:34.635Z,348.75
2023-04-29T13:19:48.216Z,315.00
2023-04-29T13:21:40.113Z,303.75
2023-04-29T13:23:40.430Z,303.75
2023-04-29T13:25:41.092Z,309.38
2023-04-29T13:27:41.383Z,298.12
2023-04-29T13:29:41.683Z,281.25
2023-04-29T13:31:43.675Z,275.62
2023-04-29T13:33:44.077Z,270.00
2023-04-29T13:35:44.358Z,270.00
2023-04-29T13:37:44.742Z,286.88
2023-04-29T13:39:47.390Z,298.12
2023-04-29T13:41:48.269Z,309.38
2023-04-29T13:43:50.803Z,303.75
2023-04-29T13:45:52.832Z,281.25
2023-04-29T13:48:07.749Z,292.50
2023-04-29T13:53:00.862Z,320.62
2023-04-29T14:02:28.405Z,354.38
2023-04-29T14:04:29.108Z,331.88
2023-04-29T14:06:29.507Z,320.62
2023-04-29T14:08:29.821Z,309.38
2023-04-29T14:10:30.104Z,298.12
2023-04-29T14:12:30.454Z,270.00
2023-04-29T14:14:30.759Z,230.62
2023-04-29T14:16:31.111Z,191.25
2023-04-29T14:18:31.559Z,185.62
2023-04-29T14:20:31.839Z,196.88
2023-04-29T14:22:32.281Z,241.88
2023-04-29T14:24:32.564Z,298.12
2023-04-29T14:26:32.872Z,343.12
2023-04-29T14:28:33.146Z,360.00
2023-04-29T14:30:33.482Z,376.88
2023-04-29T14:32:33.771Z,371.25
2023-04-29T14:34:34.073Z,286.88
2023-04-29T14:36:34.402Z,241.88
2023-04-29T14:38:34.703Z,230.62
2023-04-29T14:40:35.004Z,478.12
2023-04-29T14:42:35.435Z,495.00
2023-04-29T14:44:35.836Z,376.88
2023-04-29T14:46:36.162Z,354.38
2023-04-29T14:48:36.425Z,596.25
2023-04-29T14:50:36.755Z,545.62
2023-04-29T14:52:37.076Z,416.25
2023-04-29T14:54:37.448Z,399.38
2023-04-29T14:56:37.795Z,376.88
2023-04-29T14:58:38.090Z,348.75
2023-04-29T15:00:38.411Z,348.75
2023-04-29T15:02:38.764Z,393.75
2023-04-29T15:04:43.949Z,455.62
2023-04-29T15:06:44.267Z,590.62
2023-04-29T15:08:44.571Z,613.12
2023-04-29T15:10:44.864Z,613.12
2023-04-29T15:12:45.246Z,405.00
2023-04-29T15:14:45.493Z,421.88
2023-04-29T15:16:45.926Z,399.38
2023-04-29T15:18:46.217Z,365.62
2023-04-29T15:20:46.590Z,410.62
2023-04-29T15:22:46.887Z,348.75
2023-04-29T15:26:47.468Z,225.00
2023-04-29T15:28:47.748Z,185.62
2023-04-29T15:30:48.062Z,146.25
2023-04-29T15:32:48.443Z,118.12
2023-04-29T15:34:48.738Z,112.50
2023-04-29T15:36:49.029Z,90.00
2023-04-29T15:38:49.397Z,73.12
2023-04-29T15:40:49.717Z,56.25
2023-04-29T15:42:50.069Z,50.62
2023-04-29T15:44:50.321Z,50.62
2023-04-29T15:46:50.631Z,56.25
2023-04-29T15:48:50.962Z,61.88
2023-04-29T15:50:51.301Z,73.12
2023-04-29T15:52:51.592Z,84.38
2023-04-29T15:54:51.977Z,84.38
2023-04-29T15:56:52.225Z,84.38
2023-04-29T15:58:52.558Z,78.75
2023-04-29T16:00:53.153Z,73.12
2023-04-29T16:02:58.107Z,67.50
2023-04-29T16:04:58.387Z,67.50
2023-04-29T16:06:58.695Z,73.12
2023-04-29T16:08:59.071Z,78.75
2023-04-29T16:10:59.343Z,84.38
2023-04-29T16:12:59.663Z,84.38
2023-04-29T16:15:00.008Z,78.75
2023-04-29T16:17:00.309Z,78.75
2023-04-29T16:19:00.624Z,73.12
2023-04-29T16:21:00.948Z,67.50
2023-04-29T16:23:01.247Z,67.50
2023-04-29T16:25:01.606Z,73.12
2023-04-29T16:27:01.850Z,73.12
2023-04-29T16:29:02.182Z,78.75
2023-04-29T16:31:02.524Z,84.38
2023-04-29T16:33:02.861Z,84.38
2023-04-29T16:35:03.195Z,84.38
2023-04-29T16:37:03.512Z,84.38
2023-04-29T16:39:03.795Z,90.00
2023-04-29T16:41:04.128Z,95.62
2023-04-29T16:43:04.458Z,90.00
2023-04-29T16:45:04.830Z,84.38
2023-04-29T16:47:05.167Z,101.25
2023-04-29T16:49:05.469Z,112.50
2023-04-29T16:51:05.777Z,129.38
2023-04-29T16:53:06.082Z,140.62
2023-04-29T16:55:06.450Z,135.00
2023-04-29T16:57:06.777Z,140.62
2023-04-29T16:59:07.110Z,129.38
2023-04-29T17:01:07.516Z,123.75
2023-04-29T17:03:07.846Z,118.12
2023-04-29T17:05:08.099Z,112.50
2023-04-29T17:07:08.436Z,123.75
2023-04-29T17:09:08.813Z,135.00
2023-04-29T17:11:09.173Z,118.12
2023-04-29T17:13:09.428Z,106.88
2023-04-29T17:15:09.728Z,95.62
2023-04-29T17:17:10.043Z,84.38
2023-04-29T17:19:10.409Z,78.75
2023-04-29T17:21:10.664Z,67.50
2023-04-29T17:23:10.992Z,61.88
2023-04-29T17:25:11.275Z,61.88
2023-04-29T17:27:12.973Z,61.88
2023-04-29T17:29:13.349Z,56.25
2023-04-29T17:31:13.719Z,50.62
2023-04-29T17:33:14.111Z,50.62
2023-04-29T17:35:14.409Z,50.62
2023-04-29T17:37:14.760Z,45.00
2023-04-29T17:39:15.604Z,45.00
2023-04-29T17:41:16.333Z,39.38
2023-04-29T17:43:16.656Z,39.38
2023-04-29T17:45:16.981Z,39.38
2023-04-29T17:47:17.442Z,33.75
2023-04-29T17:49:17.803Z,28.12
2023-04-29T17:51:18.173Z,28.12
2023-04-29T17:53:18.452Z,28.12
2023-04-29T17:55:18.796Z,22.50
2023-04-29T17:57:19.096Z,22.50
2023-04-29T17:59:19.491Z,22.50
2023-04-29T18:01:20.055Z,16.88
2023-04-29T18:03:20.512Z,16.88
2023-04-29T18:05:20.898Z,16.88
2023-04-29T18:07:21.276Z,11.25
2023-04-29T18:09:21.753Z,11.25
2023-04-29T18:11:22.309Z,11.25
2023-04-29T18:13:24.127Z,11.25
2023-04-29T18:15:26.325Z,5.62
2023-04-29T18:17:26.762Z,5.62
2023-04-29T18:19:27.073Z,5.62
2023-04-29T18:21:27.409Z,5.62
2023-04-29T18:23:27.816Z,5.62
2023-04-29T18:25:28.181Z,5.62
2023-04-29T18:27:28.548Z,0.00
2023-04-29T18:30:11.502Z,0.00
2023-04-29T18:32:11.875Z,0.00
2023-04-29T18:34:12.254Z,0.00
2023-04-29T18:36:12.536Z,0.00
2023-04-29T18:38:12.890Z,0.00
2023-04-29T18:40:13.149Z,0.00
2023-04-29T18:42:13.439Z,0.00
2023-04-29T18:44:13.812Z,0.00
2023-04-29T18:46:14.107Z,0.00
2023-04-29T18:48:14.588Z,0.00
2023-04-29T18:50:14.882Z,0.00
2023-04-29T18:52:15.285Z,0.00
2023-04-29T18:54:15.691Z,0.00
2023-04-29T18:56:16.021Z,0.00
2023-04-29T18:58:16.335Z,0.00
2023-04-29T19:00:16.655Z,0.00
2023-04-29T19:02:17.031Z,0.00
2023-04-29T19:04:17.312Z,0.00
2023-04-29T19:06:17.692Z,0.00
2023-04-29T19:08:18.022Z,0.00
2023-04-29T19:10:18.344Z,0.00
2023-04-29T19:12:18.651Z,0.00
2023-04-29T19:14:18.919Z,0.00
2023-04-29T19:16:19.392Z,0.00
2023-04-29T19:18:19.778Z,0.00
2023-04-29T19:20:20.094Z,0.00
2023-04-29T19:22:20.420Z,0.00
2023-04-29T19:24:20.743Z,0.00
2023-04-29T19:26:21.105Z,0.00
2023-04-29T19:28:21.473Z,0.00
2023-04-29T19:30:21.765Z,0.00
2023-04-29T19:32:22.338Z,0.00
2023-04-29T19:34:22.697Z,0.00
2023-04-29T19:36:22.959Z,0.00
2023-04-29T19:38:23.224Z,0.00
2023-04-29T19:40:23.624Z,0.00
2023-04-29T19:42:23.860Z,0.00
2023-04-29T19:44:24.246Z,0.00
2023-04-29T19:46:24.572Z,0.00
2023-04-29T19:48:24.839Z,0.00
2023-04-29T19:50:25.201Z,0.00
2023-04-29T19:52:25.480Z,0.00
2023-04-29T19:54:25.746Z,0.00
2023-04-29T19:56:26.057Z,0.00
2023-04-29T19:58:26.401Z,0.00
2023-04-29T20:00:26.699Z,0.00
2023-04-29T20:02:27.053Z,0.00
2023-04-29T20:04:27.337Z,0.00
2023-04-29T20:06:27.718Z,0.00
2023-04-29T20:08:27.993Z,0.00
2023-04-29T20:10:29.953Z,0.00
2023-04-29T20:12:30.500Z,0.00
2023-04-29T20:14:30.840Z,0.00
2023-04-29T20:16:31.232Z,0.00
2023-04-29T20:18:31.553Z,0.00
2023-04-29T20:20:31.926Z,0.00
2023-04-29T20:22:32.208Z,0.00
2023-04-29T20:24:32.521Z,0.00
2023-04-29T20:26:33.086Z,0.00
2023-04-29T20:28:33.402Z,0.00
2023-04-29T20:30:33.730Z,0.00
2023-04-29T20:32:34.032Z,0.00
2023-04-29T20:34:34.360Z,0.00
2023-04-29T20:36:34.661Z,0.00
2023-04-29T20:38:34.984Z,0.00
2023-04-29T20:40:35.245Z,0.00
2023-04-29T20:42:35.598Z,0.00
2023-04-29T20:44:35.882Z,0.00
2023-04-29T20:46:36.255Z,0.00
2023-04-29T20:48:36.534Z,0.00
2023-04-29T20:50:36.829Z,0.00
2023-04-29T20:52:37.100Z,0.00
2023-04-29T20:54:40.285Z,0.00
2023-04-29T20:56:40.745Z,0.00
2023-04-29T20:58:41.491Z,0.00
2023-04-29T21:01:24.321Z,0.00
2023-04-29T21:03:24.627Z,0.00
2023-04-29T21:05:24.913Z,0.00
2023-04-29T21:07:25.217Z,0.00
2023-04-29T21:09:25.570Z,0.00
2023-04-29T21:11:26.423Z,0.00
2023-04-29T21:13:26.672Z,0.00
2023-04-29T21:15:27.070Z,0.00
2023-04-29T21:17:27.383Z,0.00
2023-04-29T21:19:27.761Z,0.00
2023-04-29T21:21:28.098Z,0.00
2023-04-29T21:23:28.328Z,0.00
2023-04-29T21:25:28.631Z,0.00
2023-04-29T21:27:28.966Z,0.00
2023-04-29T21:29:29.278Z,0.00
2023-04-29T21:31:29.666Z,0.00
2023-04-29T21:33:29.998Z,0.00
2023-04-29T21:35:30.305Z,0.00
2023-04-29T21:37:30.629Z,0.00
2023-04-29T21:39:31.006Z,0.00
2023-04-29T21:41:31.653Z,0.00
2023-04-29T21:43:32.435Z,0.00
2023-04-29T21:45:32.831Z,0.00
2023-04-29T21:47:33.207Z,0.00
2023-04-29T21:49:33.527Z,0.00
2023-04-29T21:51:33.819Z,0.00
2023-04-29T21:53:34.147Z,0.00
2023-04-29T21:55:34.445Z,0.00
2023-04-29T21:57:44.476Z,0.00
2023-04-29T21:59:39.956Z,0.00
2023-04-29T22:01:40.276Z,0.00
2023-04-29T22:03:40.577Z,0.00
2023-04-29T22:05:40.925Z,0.00
2023-04-29T22:07:41.213Z,0.00
2023-04-29T22:09:41.544Z,0.00
2023-04-29T22:11:41.846Z,0.00
2023-04-29T22:13:42.166Z,0.00
2023-04-29T22:15:42.478Z,0.00
2023-04-29T22:17:42.804Z,0.00
2023-04-29T22:19:43.085Z,0.00
2023-04-29T22:21:43.398Z,0.00
2023-04-29T22:23:43.699Z,0.00
2023-04-29T22:25:44.000Z,0.00
2023-04-29T22:27:44.328Z,0.00
2023-04-29T22:29:44.644Z,0.00
2023-04-29T22:31:44.965Z,0.00
2023-04-29T22:33:45.213Z,0.00
2023-04-29T22:35:45.581Z,0.00
2023-04-29T22:37:50.752Z,0.00
2023-04-29T22:39:51.086Z,0.00
2023-04-29T22:41:51.416Z,0.00
2023-04-29T22:43:51.682Z,0.00
2023-04-29T22:45:52.047Z,0.00
2023-04-29T22:47:52.376Z,0.00
2023-04-29T22:49:52.816Z,0.00
2023-04-29T22:51:53.207Z,0.00
2023-04-29T22:53:53.549Z,0.00
2023-04-29T22:55:53.960Z,0.00
2023-04-29T22:57:54.264Z,0.00
2023-04-29T22:59:54.746Z,0.00
2023-04-29T23:01:55.378Z,0.00
2023-04-29T23:03:55.779Z,0.00
2023-04-29T23:05:56.112Z,0.00
2023-04-29T23:07:56.363Z,0.00
2023-04-29T23:09:56.816Z,0.00
2023-04-29T23:11:57.197Z,0.00
2023-04-29T23:13:57.505Z,0.00
2023-04-29T23:15:57.830Z,0.00
2023-04-29T23:17:58.212Z,0.00
2023-04-29T23:19:58.484Z,0.00
2023-04-29T23:21:58.796Z,0.00
2023-04-29T23:23:59.143Z,0.00
2023-04-29T23:25:59.435Z,0.00
2023-04-29T23:27:59.886Z,0.00
2023-04-29T23:30:00.200Z,0.00
2023-04-29T23:32:00.535Z,0.00
2023-04-29T23:34:00.885Z,0.00
2023-04-29T23:36:01.190Z,0.00
2023-04-29T23:38:01.477Z,0.00
2023-04-29T23:40:01.772Z,0.00
2023-04-29T23:42:02.071Z,0.00
2023-04-29T23:44:02.397Z,0.00
2023-04-29T23:46:02.856Z,0.00
2023-04-29T23:48:03.274Z,0.00
2023-04-29T23:50:03.614Z,0.00
2023-04-29T23:52:03.923Z,0.00
2023-04-29T23:54:04.202Z,0.00
2023-04-29T23:56:04.473Z,0.00
2023-04-29T23:58:04.793Z,0.00
